Time;durP1;ratioP1;P1;durP2;ratioP2;P2;SDS_P1;SDS_P2;PMS_P1;PMS_P2;Temp;Humidity;BMP_temperature;BMP_pressure;BME280_temperature;BME280_humidity;BME280_pressure;Samples;Min_cycle;Max_cycle;Signal;HPM_P1;HPM_P2
2022/06/01 00:01:11;;;;;;;18.75;13.73;;;9.80;99.90;;;;;;5091723;28;20142;-74
2022/06/01 00:03:39;;;;;;;13.57;10.15;;;9.90;99.90;;;;;;5111118;28;20043;-74
2022/06/01 00:06:05;;;;;;;18.35;11.45;;;9.80;99.90;;;;;;5107298;27;20048;-75
2022/06/01 00:08:32;;;;;;;16.33;10.93;;;9.80;99.90;;;;;;5134576;27;20035;-74
2022/06/01 00:10:58;;;;;;;18.88;12.20;;;9.80;99.90;;;;;;5113038;27;20069;-74
2022/06/01 00:13:24;;;;;;;19.75;13.52;;;9.80;99.90;;;;;;5111432;27;20094;-74
2022/06/01 00:15:50;;;;;;;18.38;13.07;;;9.90;99.90;;;;;;5109240;27;20488;-74
2022/06/01 00:18:16;;;;;;;17.10;12.02;;;10.00;99.90;;;;;;5087957;28;20065;-74
2022/06/01 00:20:43;;;;;;;17.00;12.45;;;10.10;99.90;;;;;;5107140;28;20069;-74
2022/06/01 00:23:10;;;;;;;19.20;13.07;;;10.20;99.90;;;;;;5105655;27;20135;-74
2022/06/01 00:25:36;;;;;;;12.07;9.48;;;10.20;99.90;;;;;;5113322;27;20050;-74
2022/06/01 00:28:01;;;;;;;19.17;12.52;;;10.10;99.90;;;;;;5124029;27;20059;-74
2022/06/01 00:30:28;;;;;;;21.33;14.77;;;9.90;99.90;;;;;;5109950;28;20051;-74
2022/06/01 00:32:54;;;;;;;23.65;15.60;;;9.90;99.90;;;;;;5123192;27;20035;-74
2022/06/01 00:35:22;;;;;;;21.23;14.98;;;9.90;99.90;;;;;;5116470;27;20050;-74
2022/06/01 00:37:47;;;;;;;21.83;15.20;;;9.90;99.90;;;;;;5111478;28;20040;-74
2022/06/01 00:40:16;;;;;;;21.92;14.32;;;10.00;99.90;;;;;;5103176;28;20047;-74
2022/06/01 00:42:45;;;;;;;19.75;14.02;;;10.00;99.90;;;;;;5104951;27;21352;-74
2022/06/01 00:45:14;;;;;;;19.35;12.60;;;10.00;99.90;;;;;;5108646;28;20051;-74
2022/06/01 00:47:40;;;;;;;21.38;14.50;;;10.00;99.90;;;;;;5116213;27;20126;-74
2022/06/01 00:50:14;;;;;;;20.15;13.55;;;10.10;99.90;;;;;;5128700;27;20101;-74
2022/06/01 00:52:45;;;;;;;18.60;13.15;;;10.10;99.90;;;;;;5139654;27;20039;-75
2022/06/01 00:55:43;;;;;;;19.67;14.25;;;10.30;99.90;;;;;;5095165;28;20055;-74
2022/06/01 00:58:32;;;;;;;17.85;12.85;;;10.10;99.90;;;;;;5101642;27;20459;-74
2022/06/01 01:00:58;;;;;;;21.08;14.23;;;10.20;99.90;;;;;;5087295;27;20062;-74
2022/06/01 01:03:29;;;;;;;21.20;13.13;;;10.20;99.90;;;;;;5110648;27;20058;-74
2022/06/01 01:06:17;;;;;;;17.20;12.97;;;10.20;99.90;;;;;;5110224;28;20051;-74
2022/06/01 01:08:46;;;;;;;19.02;13.73;;;10.20;99.90;;;;;;5101596;28;20404;-74
2022/06/01 01:11:13;;;;;;;18.73;13.88;;;10.20;99.90;;;;;;5093094;27;20054;-74
2022/06/01 01:13:43;;;;;;;21.60;15.20;;;10.20;99.90;;;;;;5107003;27;20039;-75
2022/06/01 01:16:10;;;;;;;17.55;13.10;;;10.30;99.90;;;;;;5106622;27;20050;-74
2022/06/01 01:18:39;;;;;;;19.65;14.27;;;10.20;99.90;;;;;;5106499;27;20047;-74
2022/06/01 01:21:27;;;;;;;20.48;14.77;;;10.20;99.90;;;;;;5129988;27;20527;-74
2022/06/01 01:24:18;;;;;;;21.15;13.50;;;10.30;99.90;;;;;;5119429;27;20357;-74
2022/06/01 01:26:48;;;;;;;19.30;13.50;;;10.30;99.90;;;;;;5121713;27;20407;-74
2022/06/01 01:29:15;;;;;;;19.58;13.38;;;10.20;99.90;;;;;;5109207;28;20557;-73
2022/06/01 01:31:43;;;;;;;19.95;14.05;;;10.20;99.90;;;;;;5104825;28;20424;-74
2022/06/01 01:34:09;;;;;;;19.52;14.40;;;10.20;99.90;;;;;;5097211;27;20044;-74
2022/06/01 01:36:46;;;;;;;20.65;14.52;;;10.20;99.90;;;;;;5105842;28;20067;-73
2022/06/01 01:39:14;;;;;;;19.42;14.18;;;10.20;99.90;;;;;;5108873;28;20044;-74
2022/06/01 01:41:49;;;;;;;25.45;16.60;;;10.30;99.90;;;;;;5107944;28;20059;-74
2022/06/01 01:44:21;;;;;;;22.92;15.68;;;10.30;99.90;;;;;;5111466;27;20067;-74
2022/06/01 01:46:48;;;;;;;22.42;15.93;;;10.30;99.90;;;;;;5104151;27;20044;-75
2022/06/01 01:49:36;;;;;;;19.52;15.07;;;10.40;99.90;;;;;;5132626;27;20094;-74
2022/06/01 01:52:07;;;;;;;16.10;11.68;;;10.40;99.90;;;;;;5118762;27;20070;-74
2022/06/01 01:54:45;;;;;;;;;;;10.30;99.90;;;;;;5104761;28;20372;-74
2022/06/01 01:57:23;;;;;;;20.70;14.60;;;10.30;99.90;;;;;;5103203;28;19951;-74
2022/06/01 02:00:15;;;;;;;20.40;14.35;;;10.30;99.90;;;;;;5101690;28;20083;-74
2022/06/01 02:03:08;;;;;;;27.35;18.70;;;10.30;99.90;;;;;;5077092;28;20365;-73
2022/06/01 02:06:12;;;;;;;22.60;15.88;;;10.40;99.90;;;;;;5103096;28;20391;-74
2022/06/01 02:08:46;;;;;;;22.98;16.05;;;10.30;99.90;;;;;;5104679;28;20058;-73
2022/06/01 02:14:47;;;;;;;21.73;16.17;;;10.30;99.90;;;;;;5142325;27;20047;-73
2022/06/01 02:17:19;;;;;;;23.17;16.48;;;10.30;99.90;;;;;;5110617;28;20055;-74
2022/06/01 02:19:52;;;;;;;25.75;18.08;;;10.20;99.90;;;;;;5111586;28;20112;-74
2022/06/01 02:22:18;;;;;;;23.10;15.95;;;10.20;99.90;;;;;;5116697;27;20053;-73
2022/06/01 02:24:45;;;;;;;23.73;16.42;;;10.20;99.90;;;;;;5101954;27;20108;-73
2022/06/01 02:27:12;;;;;;;26.25;18.00;;;10.20;99.90;;;;;;5106773;27;20039;-73
2022/06/01 02:30:01;;;;;;;25.27;17.77;;;10.20;99.90;;;;;;5105982;27;20572;-73
2022/06/01 02:32:28;;;;;;;26.55;16.88;;;10.20;99.90;;;;;;5111864;28;20395;-73
2022/06/01 02:34:58;;;;;;;21.00;14.52;;;10.30;99.90;;;;;;5101203;27;20039;-74
2022/06/01 02:37:26;;;;;;;23.55;15.65;;;10.20;99.90;;;;;;5110898;28;20060;-73
2022/06/01 02:39:54;;;;;;;25.02;16.55;;;10.20;99.90;;;;;;5080091;28;20059;-74
2022/06/01 02:42:26;;;;;;;25.73;17.70;;;10.10;99.90;;;;;;5113684;27;20067;-74
2022/06/01 02:45:00;;;;;;;26.42;18.67;;;10.20;99.90;;;;;;5089996;28;20047;-74
2022/06/01 02:47:30;;;;;;;30.50;20.48;;;10.20;99.90;;;;;;5094386;28;20341;-74
2022/06/01 02:49:56;;;;;;;22.98;15.52;;;10.30;99.90;;;;;;5134813;27;20491;-73
2022/06/01 02:52:23;;;;;;;20.63;14.75;;;10.20;99.90;;;;;;5096652;28;20053;-74
2022/06/01 02:54:49;;;;;;;27.73;17.20;;;10.20;99.90;;;;;;5115333;27;20047;-73
2022/06/01 02:57:15;;;;;;;22.58;16.00;;;10.20;99.90;;;;;;5107136;27;20048;-73
2022/06/01 02:59:42;;;;;;;27.73;18.30;;;10.20;99.90;;;;;;5112567;27;20051;-73
2022/06/01 03:02:11;;;;;;;33.58;19.92;;;10.20;99.90;;;;;;5108078;27;20112;-74
2022/06/01 03:04:38;;;;;;;33.80;20.92;;;10.10;99.90;;;;;;5119000;27;20035;-73
2022/06/01 03:07:05;;;;;;;32.67;21.02;;;10.10;99.90;;;;;;5126963;27;20510;-75
2022/06/01 03:09:31;;;;;;;32.03;21.63;;;10.10;99.90;;;;;;5111782;27;20058;-73
2022/06/01 03:11:57;;;;;;;30.30;20.27;;;10.10;99.90;;;;;;5135420;27;20043;-74
2022/06/01 03:14:23;;;;;;;31.40;20.77;;;10.10;99.90;;;;;;5110706;28;20048;-73
2022/06/01 03:16:49;;;;;;;30.58;20.48;;;10.20;99.90;;;;;;5083138;28;20038;-73
2022/06/01 03:19:15;;;;;;;29.70;21.27;;;10.20;99.90;;;;;;5102570;27;20048;-73
2022/06/01 03:21:41;;;;;;;32.35;21.13;;;10.20;99.90;;;;;;5104151;28;20051;-74
2022/06/01 03:24:09;;;;;;;31.40;20.83;;;10.20;99.90;;;;;;5120141;27;20391;-74
2022/06/01 03:26:35;;;;;;;31.63;22.15;;;10.30;99.90;;;;;;5111499;27;20737;-74
2022/06/01 03:29:02;;;;;;;33.55;21.92;;;10.30;99.90;;;;;;5076241;28;20058;-75
2022/06/01 03:31:28;;;;;;;34.92;22.10;;;10.30;99.90;;;;;;5122418;27;20059;-74
2022/06/01 03:33:54;;;;;;;29.45;21.55;;;10.40;99.90;;;;;;5077488;28;20044;-74
2022/06/01 03:36:21;;;;;;;32.85;21.88;;;10.40;99.90;;;;;;5103642;27;20114;-73
2022/06/01 03:38:47;;;;;;;35.60;22.63;;;10.50;99.90;;;;;;5107646;28;20105;-73
2022/06/01 03:41:13;;;;;;;35.42;22.73;;;10.50;99.90;;;;;;5105145;27;20051;-73
2022/06/01 03:46:23;;;;;;;36.08;22.40;;;10.50;99.90;;;;;;5112817;27;20044;-73
2022/06/01 03:48:49;;;;;;;34.60;22.50;;;10.50;99.90;;;;;;5112685;28;20040;-73
2022/06/01 03:51:16;;;;;;;31.67;22.45;;;10.50;99.90;;;;;;5095695;28;20049;-73
2022/06/01 03:53:42;;;;;;;31.23;21.30;;;10.50;99.90;;;;;;5074682;28;20076;-73
2022/06/01 03:56:09;;;;;;;32.85;21.60;;;10.60;99.90;;;;;;5133107;27;20491;-74
2022/06/01 03:58:36;;;;;;;30.02;20.50;;;10.60;99.90;;;;;;5117583;27;20420;-74
2022/06/01 04:01:06;;;;;;;28.85;20.42;;;10.60;99.90;;;;;;5109160;27;20442;-74
2022/06/01 04:03:32;;;;;;;32.88;22.15;;;10.60;99.90;;;;;;5092431;28;20048;-74
2022/06/01 04:05:58;;;;;;;33.35;22.48;;;10.60;99.90;;;;;;5122699;27;20040;-74
2022/06/01 04:08:24;;;;;;;31.70;22.40;;;10.60;99.90;;;;;;5103454;28;20047;-73
2022/06/01 04:10:50;;;;;;;31.88;21.48;;;10.60;99.90;;;;;;5128759;27;20434;-73
2022/06/01 04:13:16;;;;;;;34.35;22.23;;;10.60;99.90;;;;;;5106327;27;20047;-74
2022/06/01 04:15:42;;;;;;;30.13;22.27;;;10.70;99.90;;;;;;5104537;27;20142;-74
2022/06/01 04:18:09;;;;;;;33.63;22.58;;;10.70;99.90;;;;;;5121283;27;20398;-73
2022/06/01 04:20:36;;;;;;;34.55;22.90;;;10.70;99.90;;;;;;5101752;28;20448;-75
2022/06/01 04:23:02;;;;;;;34.35;22.10;;;10.70;99.90;;;;;;5146014;27;20468;-74
2022/06/01 04:25:30;;;;;;;33.58;22.27;;;10.70;99.90;;;;;;5142690;27;20180;-74
2022/06/01 04:27:56;;;;;;;32.83;22.83;;;10.70;99.90;;;;;;5115684;27;20048;-74
2022/06/01 04:30:22;;;;;;;31.92;22.67;;;10.80;99.90;;;;;;5125511;27;20051;-74
2022/06/01 04:32:51;;;;;;;31.95;21.42;;;10.80;99.90;;;;;;5096640;28;20047;-73
2022/06/01 04:35:19;;;;;;;32.17;21.77;;;10.80;99.90;;;;;;5131210;27;20085;-74
2022/06/01 04:37:45;;;;;;;28.73;21.30;;;10.80;99.90;;;;;;5117398;27;20039;-73
2022/06/01 04:40:13;;;;;;;32.10;22.10;;;10.90;99.90;;;;;;5094205;28;20496;-74
2022/06/01 04:42:40;;;;;;;31.02;22.38;;;10.90;99.90;;;;;;5094543;28;20081;-74
2022/06/01 04:45:07;;;;;;;32.58;22.17;;;10.90;99.90;;;;;;5111029;28;20043;-74
2022/06/01 04:47:33;;;;;;;31.23;22.52;;;10.90;99.90;;;;;;5094969;28;20040;-74
2022/06/01 04:49:59;;;;;;;31.17;23.15;;;10.90;99.90;;;;;;5120932;27;20107;-73
2022/06/01 04:52:25;;;;;;;33.13;22.10;;;11.00;99.90;;;;;;5111876;28;20052;-74
2022/06/01 04:54:51;;;;;;;32.15;23.20;;;11.10;99.90;;;;;;5145531;27;20055;-74
2022/06/01 04:57:17;;;;;;;32.42;21.88;;;11.00;99.90;;;;;;5132475;27;20136;-74
2022/06/01 04:59:43;;;;;;;36.08;23.10;;;11.10;99.90;;;;;;5118393;27;20476;-74
2022/06/01 05:02:09;;;;;;;31.10;22.13;;;11.20;99.90;;;;;;5116335;27;20044;-74
2022/06/01 05:04:35;;;;;;;33.35;23.95;;;11.10;99.90;;;;;;5111361;28;20052;-74
2022/06/01 05:07:01;;;;;;;31.92;23.83;;;11.20;99.90;;;;;;5093960;28;20039;-74
2022/06/01 05:09:27;;;;;;;34.92;24.10;;;11.20;99.90;;;;;;5094801;28;20689;-74
2022/06/01 05:11:53;;;;;;;30.27;22.52;;;11.20;99.90;;;;;;5120233;27;20047;-74
2022/06/01 05:14:19;;;;;;;33.90;25.00;;;11.20;99.90;;;;;;5106355;27;20044;-73
2022/06/01 05:16:45;;;;;;;32.88;23.38;;;11.20;99.90;;;;;;5093692;28;20120;-73
2022/06/01 05:19:11;;;;;;;33.33;22.60;;;11.20;99.90;;;;;;5106347;28;20472;-74
2022/06/01 05:21:37;;;;;;;34.58;25.00;;;11.30;99.90;;;;;;5138557;27;20047;-73
2022/06/01 05:24:04;;;;;;;32.83;24.70;;;11.30;99.90;;;;;;5076120;28;20130;-73
2022/06/01 05:26:30;;;;;;;34.03;24.23;;;11.40;99.90;;;;;;5091230;28;21196;-74
2022/06/01 05:28:55;;;;;;;33.17;23.77;;;11.40;99.90;;;;;;5110314;27;20457;-73
2022/06/01 05:31:21;;;;;;;31.08;22.67;;;11.50;99.90;;;;;;5080255;28;20051;-73
2022/06/01 05:33:48;;;;;;;32.05;23.23;;;11.60;99.90;;;;;;5108105;28;20051;-73
2022/06/01 05:36:16;;;;;;;34.05;23.85;;;11.60;99.90;;;;;;5125601;27;20134;-73
2022/06/01 05:38:42;;;;;;;31.40;23.25;;;11.80;99.90;;;;;;5099739;27;20086;-73
2022/06/01 05:41:08;;;;;;;32.70;24.08;;;11.80;99.90;;;;;;5113193;27;20481;-73
2022/06/01 05:43:35;;;;;;;33.30;24.48;;;11.90;99.90;;;;;;5072737;28;20123;-73
2022/06/01 05:46:02;;;;;;;33.83;24.65;;;11.90;99.90;;;;;;5127486;27;20044;-73
2022/06/01 05:48:28;;;;;;;33.92;23.65;;;12.00;99.90;;;;;;5134749;27;20048;-74
2022/06/01 05:50:54;;;;;;;34.80;25.05;;;12.10;99.90;;;;;;5118157;27;20453;-74
2022/06/01 05:53:20;;;;;;;33.40;24.85;;;12.10;99.90;;;;;;5094328;28;20048;-73
2022/06/01 05:55:46;;;;;;;33.72;24.83;;;12.20;99.90;;;;;;5110836;28;20044;-73
2022/06/01 05:58:18;;;;;;;33.60;23.88;;;12.30;99.90;;;;;;5088511;28;20046;-74
2022/06/01 06:00:45;;;;;;;30.58;23.48;;;12.30;99.90;;;;;;5116627;27;21269;-73
2022/06/01 06:03:12;;;;;;;30.23;22.25;;;12.40;99.90;;;;;;5076348;28;20407;-75
2022/06/01 06:08:23;;;;;;;27.98;20.92;;;12.30;99.90;;;;;;5090718;28;20096;-75
2022/06/01 06:10:49;;;;;;;30.25;22.08;;;12.30;99.90;;;;;;5087363;28;20077;-74
2022/06/01 06:13:15;;;;;;;30.98;23.17;;;12.40;99.90;;;;;;5101832;28;20039;-74
2022/06/01 06:15:41;;;;;;;33.08;23.25;;;12.50;99.90;;;;;;5092173;28;20144;-74
2022/06/01 06:18:11;;;;;;;27.77;20.45;;;12.50;99.90;;;;;;5100431;28;20047;-74
2022/06/01 06:20:38;;;;;;;25.90;20.95;;;12.40;99.90;;;;;;5085380;28;20043;-74
2022/06/01 06:23:05;;;;;;;30.08;21.33;;;12.40;99.90;;;;;;5120218;28;20039;-73
2022/06/01 06:25:30;;;;;;;29.45;21.27;;;12.40;99.90;;;;;;5109596;28;20404;-75
2022/06/01 06:27:56;;;;;;;29.30;21.50;;;12.40;99.90;;;;;;5109277;28;20050;-74
2022/06/01 06:30:22;;;;;;;28.70;22.27;;;12.40;99.90;;;;;;5117762;27;20051;-74
2022/06/01 06:32:48;;;;;;;26.73;20.55;;;12.50;99.90;;;;;;5110100;28;20476;-74
2022/06/01 06:35:14;;;;;;;31.83;22.48;;;12.50;99.90;;;;;;5122778;28;20458;-74
2022/06/01 06:37:40;;;;;;;29.63;21.75;;;12.50;99.90;;;;;;5090964;28;20342;-74
2022/06/01 06:40:07;;;;;;;28.00;21.27;;;12.50;99.90;;;;;;5108847;28;20462;-74
2022/06/01 06:42:33;;;;;;;27.88;20.90;;;12.50;99.90;;;;;;5095779;28;20183;-74
2022/06/01 06:44:59;;;;;;;27.33;21.08;;;12.50;99.90;;;;;;5125875;28;20051;-74
2022/06/01 06:47:25;;;;;;;26.02;20.65;;;12.50;99.90;;;;;;5110369;28;20055;-75
2022/06/01 06:49:51;;;;;;;30.85;21.50;;;12.50;99.90;;;;;;5125715;28;20047;-74
2022/06/01 06:52:17;;;;;;;27.65;20.60;;;12.50;99.90;;;;;;5090744;28;20058;-75
2022/06/01 06:54:42;;;;;;;28.25;20.70;;;12.50;99.90;;;;;;5107407;28;20036;-75
2022/06/01 06:57:08;;;;;;;26.67;20.75;;;12.50;99.90;;;;;;5077001;28;20039;-74
2022/06/01 06:59:34;;;;;;;27.38;20.88;;;12.50;99.90;;;;;;5110303;28;20039;-74
2022/06/01 07:02:00;;;;;;;28.00;20.45;;;12.50;99.90;;;;;;5110598;27;20043;-74
2022/06/01 07:04:26;;;;;;;27.30;20.10;;;12.50;99.90;;;;;;5137461;27;20139;-74
2022/06/01 07:06:52;;;;;;;27.58;19.73;;;12.50;99.90;;;;;;5102389;27;20045;-74
2022/06/01 07:09:18;;;;;;;28.40;20.83;;;12.50;99.90;;;;;;5096291;28;20047;-74
2022/06/01 07:11:43;;;;;;;25.83;19.85;;;12.50;99.90;;;;;;5138499;27;20071;-74
2022/06/01 07:14:09;;;;;;;25.77;19.92;;;12.60;99.90;;;;;;5114206;27;20455;-74
2022/06/01 07:16:36;;;;;;;28.02;21.05;;;12.60;99.90;;;;;;5111034;28;20131;-74
2022/06/01 07:19:04;;;;;;;28.48;20.42;;;12.60;99.90;;;;;;5148281;27;20039;-73
2022/06/01 07:21:30;;;;;;;28.38;20.70;;;12.70;99.90;;;;;;5097768;27;20039;-73
2022/06/01 07:23:56;;;;;;;25.38;19.17;;;12.80;99.90;;;;;;5100568;27;20059;-74
2022/06/01 07:26:25;;;;;;;25.50;18.73;;;12.90;99.90;;;;;;5116744;27;20039;-74
2022/06/01 07:28:52;;;;;;;23.08;16.60;;;12.90;99.90;;;;;;5118022;27;20040;-74
2022/06/01 07:31:18;;;;;;;24.85;17.63;;;12.90;99.90;;;;;;5088895;27;20044;-75
2022/06/01 07:33:46;;;;;;;22.73;17.27;;;13.00;99.90;;;;;;5102515;27;20091;-72
2022/06/01 07:36:14;;;;;;;24.77;17.08;;;13.00;99.90;;;;;;5139916;27;20499;-72
2022/06/01 07:44:43;;;;;;;23.13;15.90;;;13.00;99.90;;;;;;5075694;28;20052;-72
2022/06/01 07:47:11;;;;;;;23.35;15.90;;;13.00;99.90;;;;;;5113221;28;20050;-72
2022/06/01 07:49:37;;;;;;;21.38;15.40;;;13.20;99.90;;;;;;5092902;28;20051;-72
2022/06/01 07:52:06;;;;;;;22.52;16.15;;;13.30;99.90;;;;;;5132254;27;20051;-72
2022/06/01 07:54:34;;;;;;;20.13;13.73;;;13.50;99.90;;;;;;5151258;27;20078;-73
2022/06/01 07:57:00;;;;;;;20.48;14.35;;;13.70;99.90;;;;;;5095567;27;20039;-73
2022/06/01 07:59:26;;;;;;;17.80;14.20;;;13.80;99.90;;;;;;5116716;27;20547;-73
2022/06/01 08:01:52;;;;;;;16.73;11.95;;;13.90;99.90;;;;;;5121142;27;20047;-73
2022/06/01 08:04:19;;;;;;;19.02;13.05;;;14.10;99.90;;;;;;5093537;27;20048;-73
2022/06/01 08:06:44;;;;;;;14.32;10.32;;;14.30;99.90;;;;;;5117300;27;20526;-73
2022/06/01 08:09:10;;;;;;;14.60;12.15;;;14.40;99.90;;;;;;5138439;27;20068;-72
2022/06/01 08:14:20;;;;;;;16.10;11.55;;;14.60;99.90;;;;;;5149716;27;20395;-72
2022/06/01 08:16:46;;;;;;;15.32;12.02;;;14.90;99.90;;;;;;5114084;27;21203;-73
2022/06/01 08:19:15;;;;;;;14.60;11.18;;;15.10;99.90;;;;;;5129413;27;20047;-73
2022/06/01 08:21:41;;;;;;;15.95;12.30;;;15.20;99.90;;;;;;5146620;27;20093;-73
2022/06/01 08:24:07;;;;;;;13.85;11.40;;;15.60;99.90;;;;;;5099610;27;20090;-73
2022/06/01 08:26:34;;;;;;;14.40;11.30;;;15.70;99.90;;;;;;5112928;27;20067;-73
2022/06/01 08:29:02;;;;;;;13.50;10.50;;;15.50;99.90;;;;;;5095378;28;20040;-73
2022/06/01 08:31:29;;;;;;;13.77;11.00;;;15.30;99.90;;;;;;5119433;27;20047;-73
2022/06/01 08:33:57;;;;;;;13.15;10.60;;;15.40;99.90;;;;;;5113812;27;20041;-73
2022/06/01 08:36:24;;;;;;;11.98;10.77;;;15.40;99.90;;;;;;5100669;27;20065;-73
2022/06/01 08:38:50;;;;;;;11.63;10.43;;;15.30;99.90;;;;;;5122637;27;20035;-74
2022/06/01 08:41:20;;;;;;;9.75;8.70;;;15.30;99.90;;;;;;5109334;27;20464;-74
2022/06/01 08:43:54;;;;;;;13.35;10.05;;;15.30;99.90;;;;;;5115324;27;20047;-75
2022/06/01 08:46:22;;;;;;;12.35;10.88;;;15.50;99.90;;;;;;5119458;27;20058;-74
2022/06/01 08:48:52;;;;;;;11.38;9.52;;;15.50;99.90;;;;;;5103508;27;20061;-74
2022/06/01 08:51:23;;;;;;;12.25;11.00;;;15.70;99.90;;;;;;5120758;27;20079;-75
2022/06/01 08:53:49;;;;;;;;;;;16.00;99.90;;;;;;5132647;27;20051;-74
2022/06/01 08:56:23;;;;;;;9.52;8.30;;;16.00;99.90;;;;;;5132214;27;19919;-74
2022/06/01 08:59:13;;;;;;;9.43;8.50;;;15.80;99.90;;;;;;5132595;27;20076;-74
2022/06/01 09:01:45;;;;;;;9.95;8.27;;;15.70;99.90;;;;;;5119631;27;20047;-74
2022/06/01 09:04:17;;;;;;;9.00;7.85;;;15.60;99.90;;;;;;5111201;28;20063;-74
2022/06/01 09:06:50;;;;;;;9.77;8.05;;;15.60;99.90;;;;;;5111914;28;20069;-73
2022/06/01 09:09:57;;;;;;;9.98;8.20;;;15.70;99.90;;;;;;5093427;27;20054;-74
2022/06/01 09:12:24;;;;;;;9.20;8.20;;;15.60;99.90;;;;;;5002104;28;20050;-74
2022/06/01 09:14:55;;;;;;;10.13;9.00;;;15.90;99.90;;;;;;5003770;28;20045;-75
2022/06/01 09:17:21;;;;;;;8.68;7.78;;;16.20;99.90;;;;;;5060344;27;20154;-74
2022/06/01 09:22:39;;;;;;;10.00;9.00;;;16.10;99.90;;;;;;5145288;27;20098;-73
2022/06/01 09:25:18;;;;;;;11.55;8.55;;;16.20;99.90;;;;;;5145176;27;20051;-74
2022/06/01 09:27:53;;;;;;;12.35;10.23;;;16.20;99.90;;;;;;5112336;27;20065;-73
2022/06/01 09:30:21;;;;;;;16.75;13.20;;;16.00;99.90;;;;;;5118038;27;20119;-74
2022/06/01 09:33:20;;;;;;;14.45;12.18;;;15.60;99.90;;;;;;5117320;27;20104;-73
2022/06/01 09:36:01;;;;;;;15.73;12.25;;;15.20;99.90;;;;;;5109818;28;20066;-73
2022/06/01 09:38:48;;;;;;;16.90;12.40;;;14.80;99.90;;;;;;5130224;27;20088;-73
2022/06/01 09:41:23;;;;;;;13.15;10.32;;;14.60;99.90;;;;;;5114284;27;20134;-73
2022/06/01 09:44:00;;;;;;;11.98;9.48;;;14.20;99.90;;;;;;5103784;28;20071;-73
2022/06/01 09:46:35;;;;;;;9.15;7.88;;;13.90;99.90;;;;;;5117063;27;21377;-73
2022/06/01 09:49:12;;;;;;;9.52;7.63;;;13.80;99.90;;;;;;5120618;27;20426;-74
2022/06/01 09:51:40;;;;;;;6.85;5.70;;;13.70;99.90;;;;;;5111828;28;20447;-73
2022/06/01 09:54:21;;;;;;;5.97;4.93;;;13.80;99.90;;;;;;5077028;28;20059;-74
2022/06/01 09:56:48;;;;;;;6.45;5.53;;;13.70;99.90;;;;;;5094170;28;20071;-73
2022/06/01 10:08:08;;;;;;;5.72;4.65;;;13.40;99.90;;;;;;5117949;28;20040;-73
2022/06/01 10:10:35;;;;;;;7.43;5.07;;;13.40;99.90;;;;;;5114427;27;20072;-73
2022/06/01 10:13:02;;;;;;;5.18;4.35;;;13.50;99.90;;;;;;5118603;28;20039;-74
2022/06/01 10:15:47;;;;;;;4.60;4.20;;;13.60;99.90;;;;;;5133042;27;20047;-73
2022/06/01 10:18:29;;;;;;;4.05;3.60;;;13.60;99.90;;;;;;5090942;28;20047;-73
2022/06/01 10:21:00;;;;;;;4.63;4.22;;;13.60;99.90;;;;;;5114121;28;20043;-73
2022/06/01 10:23:35;;;;;;;;;;;14.00;99.90;;;;;;5120245;27;20058;-74
2022/06/01 10:26:10;;;;;;;7.20;6.45;;;14.30;99.90;;;;;;5110532;28;19967;-74
2022/06/01 10:28:42;;;;;;;7.57;5.63;;;14.90;99.90;;;;;;5098635;28;20122;-74
2022/06/01 10:31:32;;;;;;;5.15;4.60;;;15.40;99.90;;;;;;5108164;28;20059;-73
2022/06/01 10:34:21;;;;;;;4.13;3.72;;;15.80;99.90;;;;;;5097105;28;20047;-73
2022/06/01 10:37:19;;;;;;;6.10;5.50;;;16.20;99.90;;;;;;5091370;28;20052;-75
2022/06/01 10:40:06;;;;;;;9.05;5.75;;;16.60;99.90;;;;;;5055720;28;20403;-73
2022/06/01 10:45:37;;;;;;;4.00;3.60;;;17.60;99.90;;;;;;5139667;27;20053;-74
2022/06/01 10:48:15;;;;;;;4.75;3.30;;;18.00;99.90;;;;;;5105345;27;20043;-74
2022/06/01 10:50:54;;;;;;;2.92;2.50;;;17.70;99.90;;;;;;5122049;27;20051;-74
2022/06/01 10:54:08;;;;;;;3.92;3.55;;;17.70;99.90;;;;;;5119390;27;20038;-74
2022/06/01 10:56:34;;;;;;;4.63;3.63;;;17.40;99.90;;;;;;5018340;28;20038;-74
2022/06/01 10:59:07;;;;;;;3.75;3.35;;;16.90;99.90;;;;;;5098668;27;20055;-73
2022/06/01 11:01:40;;;;;;;3.47;3.17;;;16.60;99.90;;;;;;5109083;27;20131;-74
2022/06/01 11:04:26;;;;;;;3.47;3.17;;;16.50;99.90;;;;;;5120095;27;20040;-73
2022/06/01 11:06:55;;;;;;;4.05;2.92;;;16.40;99.90;;;;;;5133928;27;20531;-73
2022/06/01 11:09:43;;;;;;;3.50;2.90;;;16.10;99.90;;;;;;5134289;27;20055;-74
2022/06/01 11:12:33;;;;;;;3.00;2.70;;;15.80;99.90;;;;;;5122751;27;20062;-74
2022/06/01 11:15:07;;;;;;;3.40;2.97;;;15.60;99.90;;;;;;5106786;27;20051;-73
2022/06/01 11:18:10;;;;;;;3.38;3.08;;;15.60;99.90;;;;;;5118114;27;20047;-74
2022/06/01 11:20:52;;;;;;;4.57;3.30;;;15.50;99.90;;;;;;5094772;27;20419;-74
2022/06/01 11:23:47;;;;;;;3.30;3.00;;;15.50;99.90;;;;;;5123618;27;20044;-74
2022/06/01 11:26:34;;;;;;;5.43;3.40;;;15.60;99.90;;;;;;5108651;27;20042;-74
2022/06/01 11:29:27;;;;;;;6.22;3.70;;;16.20;99.90;;;;;;5140017;27;20450;-73
2022/06/01 11:31:58;;;;;;;5.18;4.35;;;16.90;99.90;;;;;;5124958;27;20476;-73
2022/06/01 11:34:47;;;;;;;3.90;3.35;;;17.10;99.90;;;;;;5122893;27;20116;-74
2022/06/01 11:37:29;;;;;;;3.65;2.80;;;17.60;99.90;;;;;;5114325;27;20055;-74
2022/06/01 11:40:17;;;;;;;3.60;3.30;;;18.00;99.90;;;;;;5115321;27;20043;-76
2022/06/01 11:42:51;;;;;;;3.50;3.20;;;19.10;99.90;;;;;;5136316;27;20408;-73
2022/06/01 11:45:21;;;;;;;4.30;3.90;;;19.10;99.90;;;;;;5121170;27;20044;-74
2022/06/01 11:48:00;;;;;;;4.25;3.80;;;18.90;99.90;;;;;;5116222;27;20077;-73
2022/06/01 11:51:01;;;;;;;4.65;2.88;;;18.70;99.90;;;;;;5132572;27;20066;-73
2022/06/01 11:54:00;;;;;;;3.42;3.13;;;17.70;99.90;;;;;;5088895;27;20044;-75
2022/06/01 11:56:30;;;;;;;4.65;3.72;;;17.30;99.90;;;;;;5108325;27;20043;-74
2022/06/01 11:59:28;;;;;;;5.20;4.70;;;16.90;99.90;;;;;;5119050;27;20177;-73
2022/06/01 12:02:40;;;;;;;4.70;4.20;;;16.30;99.90;;;;;;5094880;27;20055;-72
2022/06/01 12:05:13;;;;;;;10.05;5.22;;;15.80;99.90;;;;;;5129649;27;20059;-71
2022/06/01 12:07:49;;;;;;;4.40;3.28;;;14.80;99.90;;;;;;5105604;27;20479;-71
2022/06/01 12:10:31;;;;;;;8.10;5.00;;;13.80;99.90;;;;;;5146591;27;20075;-70
2022/06/01 12:13:03;;;;;;;7.68;5.75;;;13.10;99.90;;;;;;5132301;27;20131;-70
2022/06/01 12:16:00;;;;;;;7.60;5.90;;;12.70;99.90;;;;;;5115985;27;20043;-70
2022/06/01 12:18:29;;;;;;;8.07;5.78;;;12.70;99.90;;;;;;5089322;28;20040;-70
2022/06/01 12:21:21;;;;;;;14.25;7.35;;;12.70;99.90;;;;;;5101950;27;20487;-69
2022/06/01 12:29:59;;;;;;;6.35;4.47;;;12.60;99.90;;;;;;5061428;27;20039;-70
2022/06/01 12:32:26;;;;;;;7.55;5.47;;;12.60;99.90;;;;;;5106733;27;20164;-71
2022/06/01 12:35:02;;;;;;;8.52;5.63;;;12.70;99.90;;;;;;5108200;27;20035;-71
2022/06/01 12:37:46;;;;;;;7.78;6.43;;;12.90;99.90;;;;;;5095158;27;20050;-72
2022/06/01 12:40:17;;;;;;;9.75;6.78;;;13.10;99.90;;;;;;5124494;27;20518;-73
2022/06/01 12:43:00;;;;;;;7.53;6.10;;;13.40;99.90;;;;;;5104880;27;20047;-72
2022/06/01 12:45:42;;;;;;;8.05;6.40;;;13.50;99.90;;;;;;5138367;27;20043;-72
2022/06/01 12:48:15;;;;;;;8.18;6.15;;;13.60;99.90;;;;;;5116559;27;20051;-73
2022/06/01 12:50:47;;;;;;;8.82;6.95;;;13.70;99.90;;;;;;5117909;27;20063;-73
2022/06/01 12:53:19;;;;;;;9.85;6.50;;;13.90;99.90;;;;;;5121713;27;20089;-72
2022/06/01 12:55:46;;;;;;;8.68;5.38;;;14.10;99.90;;;;;;5137881;27;20047;-72
2022/06/01 12:58:22;;;;;;;9.73;6.60;;;14.30;99.90;;;;;;5098866;27;20055;-72
2022/06/01 13:00:51;;;;;;;7.35;6.63;;;14.60;99.90;;;;;;5116355;27;20047;-72
2022/06/01 13:03:20;;;;;;;7.35;6.13;;;15.00;99.90;;;;;;5131188;27;20509;-72
2022/06/01 13:05:52;;;;;;;7.30;6.18;;;15.30;99.90;;;;;;5142428;27;20048;-72
2022/06/01 13:08:25;;;;;;;7.25;6.05;;;15.70;99.90;;;;;;5103566;27;20047;-72
2022/06/01 13:10:51;;;;;;;8.32;6.80;;;16.10;99.90;;;;;;5097778;27;20047;-73
2022/06/01 13:13:23;;;;;;;8.75;7.00;;;16.30;99.90;;;;;;5118331;27;20081;-73
2022/06/01 13:16:07;;;;;;;6.60;5.25;;;16.60;99.90;;;;;;5110139;27;20101;-73
2022/06/01 13:18:38;;;;;;;6.13;5.53;;;16.80;99.90;;;;;;5092569;28;20044;-73
2022/06/01 13:21:10;;;;;;;5.60;5.10;;;16.70;99.90;;;;;;5112324;27;20074;-73
2022/06/01 13:23:52;;;;;;;6.95;6.35;;;16.50;99.90;;;;;;5094126;27;20532;-73
2022/06/01 13:26:32;;;;;;;9.30;8.40;;;16.40;99.90;;;;;;5102327;28;20455;-73
2022/06/01 13:29:09;;;;;;;8.73;7.47;;;16.20;99.90;;;;;;5138244;27;20396;-73
2022/06/01 13:31:40;;;;;;;7.30;6.60;;;16.00;99.90;;;;;;5108974;27;20050;-73
2022/06/01 13:34:08;;;;;;;9.98;9.07;;;16.10;99.90;;;;;;5131590;27;20099;-74